sensor_id;sensor_type;location;lat;lon;timestamp;P1;durP1;ratioP1;P2;durP2;ratioP2
48665;SDS011;34452;50.796;4.994;2023-07-29T00:02:00;3.33;;;1.58;;
48665;SDS011;34452;50.796;4.994;2023-07-29T00:04:26;7.00;;;1.45;;
48665;SDS011;34452;50.796;4.994;2023-07-29T00:06:52;3.50;;;1.33;;
48665;SDS011;34452;50.796;4.994;2023-07-29T00:09:17;2.60;;;1.48;;
48665;SDS011;34452;50.796;4.994;2023-07-29T00:11:43;2.00;;;1.15;;
48665;SDS011;34452;50.796;4.994;2023-07-29T00:14:09;5.65;;;1.15;;
48665;SDS011;34452;50.796;4.994;2023-07-29T00:16:34;3.42;;;1.27;;
48665;SDS011;34452;50.796;4.994;2023-07-29T00:19:00;3.60;;;1.30;;
48665;SDS011;34452;50.796;4.994;2023-07-29T00:21:27;9.52;;;1.48;;
48665;SDS011;34452;50.796;4.994;2023-07-29T00:23:52;4.32;;;1.50;;
48665;SDS011;34452;50.796;4.994;2023-07-29T00:26:18;5.72;;;1.30;;
48665;SDS011;34452;50.796;4.994;2023-07-29T00:28:44;5.20;;;1.20;;
48665;SDS011;34452;50.796;4.994;2023-07-29T00:31:10;3.85;;;1.15;;
48665;SDS011;34452;50.796;4.994;2023-07-29T00:33:36;4.70;;;2.10;;
48665;SDS011;34452;50.796;4.994;2023-07-29T00:36:01;9.18;;;1.80;;
48665;SDS011;34452;50.796;4.994;2023-07-29T00:40:53;5.00;;;1.55;;
48665;SDS011;34452;50.796;4.994;2023-07-29T00:43:19;3.10;;;1.40;;
48665;SDS011;34452;50.796;4.994;2023-07-29T00:45:44;6.20;;;1.33;;
48665;SDS011;34452;50.796;4.994;2023-07-29T00:48:11;1.95;;;0.98;;
48665;SDS011;34452;50.796;4.994;2023-07-29T00:50:37;2.85;;;1.05;;
48665;SDS011;34452;50.796;4.994;2023-07-29T00:53:03;2.25;;;1.00;;
48665;SDS011;34452;50.796;4.994;2023-07-29T00:55:29;3.35;;;1.08;;
48665;SDS011;34452;50.796;4.994;2023-07-29T00:57:54;4.80;;;1.40;;
48665;SDS011;34452;50.796;4.994;2023-07-29T01:00:21;2.88;;;1.15;;
48665;SDS011;34452;50.796;4.994;2023-07-29T01:02:47;8.55;;;1.52;;
48665;SDS011;34452;50.796;4.994;2023-07-29T01:05:14;6.68;;;1.40;;
48665;SDS011;34452;50.796;4.994;2023-07-29T01:13:41;4.40;;;0.88;;
48665;SDS011;34452;50.796;4.994;2023-07-29T01:19:14;5.50;;;0.75;;
48665;SDS011;34452;50.796;4.994;2023-07-29T01:21:56;2.67;;;0.95;;
48665;SDS011;34452;50.796;4.994;2023-07-29T01:24:23;1.55;;;0.85;;
48665;SDS011;34452;50.796;4.994;2023-07-29T01:26:49;2.22;;;0.90;;
48665;SDS011;34452;50.796;4.994;2023-07-29T01:29:14;1.08;;;0.70;;
48665;SDS011;34452;50.796;4.994;2023-07-29T01:31:43;2.83;;;0.85;;
48665;SDS011;34452;50.796;4.994;2023-07-29T01:34:24;4.07;;;1.20;;
48665;SDS011;34452;50.796;4.994;2023-07-29T01:36:54;4.88;;;1.23;;
48665;SDS011;34452;50.796;4.994;2023-07-29T01:39:24;11.27;;;1.65;;
48665;SDS011;34452;50.796;4.994;2023-07-29T01:41:54;1.52;;;0.73;;
48665;SDS011;34452;50.796;4.994;2023-07-29T01:44:20;2.72;;;1.00;;
48665;SDS011;34452;50.796;4.994;2023-07-29T01:46:46;1.77;;;0.90;;
48665;SDS011;34452;50.796;4.994;2023-07-29T01:49:12;2.42;;;1.00;;
48665;SDS011;34452;50.796;4.994;2023-07-29T01:51:37;1.75;;;0.80;;
48665;SDS011;34452;50.796;4.994;2023-07-29T01:54:03;3.40;;;1.10;;
48665;SDS011;34452;50.796;4.994;2023-07-29T01:56:29;10.73;;;1.25;;
48665;SDS011;34452;50.796;4.994;2023-07-29T01:58:55;2.17;;;1.00;;
48665;SDS011;34452;50.796;4.994;2023-07-29T02:01:21;9.10;;;1.02;;
48665;SDS011;34452;50.796;4.994;2023-07-29T02:03:47;0.98;;;0.90;;
48665;SDS011;34452;50.796;4.994;2023-07-29T02:06:18;2.33;;;0.95;;
48665;SDS011;34452;50.796;4.994;2023-07-29T02:08:44;2.40;;;0.90;;
48665;SDS011;34452;50.796;4.994;2023-07-29T02:11:09;2.80;;;0.82;;
48665;SDS011;34452;50.796;4.994;2023-07-29T02:13:35;9.63;;;1.13;;
48665;SDS011;34452;50.796;4.994;2023-07-29T02:16:01;4.45;;;0.93;;
48665;SDS011;34452;50.796;4.994;2023-07-29T02:18:26;9.77;;;1.42;;
48665;SDS011;34452;50.796;4.994;2023-07-29T02:20:52;5.88;;;0.90;;
48665;SDS011;34452;50.796;4.994;2023-07-29T02:23:18;1.25;;;0.85;;
48665;SDS011;34452;50.796;4.994;2023-07-29T02:25:44;8.35;;;1.13;;
48665;SDS011;34452;50.796;4.994;2023-07-29T02:28:10;2.35;;;0.98;;
48665;SDS011;34452;50.796;4.994;2023-07-29T02:30:36;6.07;;;0.82;;
48665;SDS011;34452;50.796;4.994;2023-07-29T02:33:02;2.63;;;1.00;;
48665;SDS011;34452;50.796;4.994;2023-07-29T02:35:28;5.60;;;1.02;;
48665;SDS011;34452;50.796;4.994;2023-07-29T02:37:53;5.80;;;1.40;;
48665;SDS011;34452;50.796;4.994;2023-07-29T02:40:19;4.68;;;1.17;;
48665;SDS011;34452;50.796;4.994;2023-07-29T02:42:46;3.30;;;0.93;;
48665;SDS011;34452;50.796;4.994;2023-07-29T02:45:11;2.55;;;1.17;;
48665;SDS011;34452;50.796;4.994;2023-07-29T02:47:37;9.40;;;1.77;;
48665;SDS011;34452;50.796;4.994;2023-07-29T02:50:03;3.42;;;1.00;;
48665;SDS011;34452;50.796;4.994;2023-07-29T02:54:55;2.95;;;1.00;;
48665;SDS011;34452;50.796;4.994;2023-07-29T02:57:21;4.07;;;1.02;;
48665;SDS011;34452;50.796;4.994;2023-07-29T02:59:46;3.53;;;1.30;;
48665;SDS011;34452;50.796;4.994;2023-07-29T03:02:12;3.97;;;1.00;;
48665;SDS011;34452;50.796;4.994;2023-07-29T03:04:38;1.58;;;0.95;;
48665;SDS011;34452;50.796;4.994;2023-07-29T03:07:03;1.48;;;0.77;;
48665;SDS011;34452;50.796;4.994;2023-07-29T03:09:29;2.53;;;1.13;;
48665;SDS011;34452;50.796;4.994;2023-07-29T03:11:55;5.13;;;0.95;;
48665;SDS011;34452;50.796;4.994;2023-07-29T03:14:21;4.25;;;1.23;;
48665;SDS011;34452;50.796;4.994;2023-07-29T03:16:47;2.08;;;0.98;;
48665;SDS011;34452;50.796;4.994;2023-07-29T03:19:13;5.18;;;1.45;;
48665;SDS011;34452;50.796;4.994;2023-07-29T03:21:40;3.25;;;1.27;;
48665;SDS011;34452;50.796;4.994;2023-07-29T03:24:05;2.50;;;1.65;;
48665;SDS011;34452;50.796;4.994;2023-07-29T03:26:32;5.10;;;1.40;;
48665;SDS011;34452;50.796;4.994;2023-07-29T03:28:57;9.23;;;1.67;;
48665;SDS011;34452;50.796;4.994;2023-07-29T03:31:23;2.78;;;1.08;;
48665;SDS011;34452;50.796;4.994;2023-07-29T03:33:49;3.20;;;1.20;;
48665;SDS011;34452;50.796;4.994;2023-07-29T03:36:14;4.68;;;1.20;;
48665;SDS011;34452;50.796;4.994;2023-07-29T03:38:40;4.10;;;1.27;;
48665;SDS011;34452;50.796;4.994;2023-07-29T03:41:07;3.30;;;1.48;;
48665;SDS011;34452;50.796;4.994;2023-07-29T03:43:33;9.45;;;1.58;;
48665;SDS011;34452;50.796;4.994;2023-07-29T03:45:59;3.58;;;1.25;;
48665;SDS011;34452;50.796;4.994;2023-07-29T03:50:51;6.75;;;1.48;;
48665;SDS011;34452;50.796;4.994;2023-07-29T03:53:17;5.50;;;1.38;;
48665;SDS011;34452;50.796;4.994;2023-07-29T03:55:43;3.45;;;1.33;;
48665;SDS011;34452;50.796;4.994;2023-07-29T03:58:09;3.95;;;1.60;;
48665;SDS011;34452;50.796;4.994;2023-07-29T04:00:34;7.68;;;1.70;;
48665;SDS011;34452;50.796;4.994;2023-07-29T04:03:00;4.13;;;1.60;;
48665;SDS011;34452;50.796;4.994;2023-07-29T04:05:26;2.65;;;1.27;;
48665;SDS011;34452;50.796;4.994;2023-07-29T04:07:51;6.95;;;1.67;;
48665;SDS011;34452;50.796;4.994;2023-07-29T04:10:18;3.63;;;1.30;;
48665;SDS011;34452;50.796;4.994;2023-07-29T04:12:44;4.55;;;1.27;;
48665;SDS011;34452;50.796;4.994;2023-07-29T04:15:10;18.13;;;1.60;;
48665;SDS011;34452;50.796;4.994;2023-07-29T04:17:36;6.95;;;1.40;;
48665;SDS011;34452;50.796;4.994;2023-07-29T04:20:02;7.40;;;1.67;;
48665;SDS011;34452;50.796;4.994;2023-07-29T04:22:28;3.50;;;1.25;;
48665;SDS011;34452;50.796;4.994;2023-07-29T04:24:53;7.47;;;1.45;;
48665;SDS011;34452;50.796;4.994;2023-07-29T04:27:19;6.22;;;1.52;;
48665;SDS011;34452;50.796;4.994;2023-07-29T04:29:45;5.18;;;1.48;;
48665;SDS011;34452;50.796;4.994;2023-07-29T04:32:10;3.47;;;1.10;;
48665;SDS011;34452;50.796;4.994;2023-07-29T04:34:36;7.82;;;2.00;;
48665;SDS011;34452;50.796;4.994;2023-07-29T04:37:02;3.55;;;1.27;;
48665;SDS011;34452;50.796;4.994;2023-07-29T04:39:27;4.88;;;1.30;;
48665;SDS011;34452;50.796;4.994;2023-07-29T04:41:53;4.38;;;1.33;;
48665;SDS011;34452;50.796;4.994;2023-07-29T04:44:19;3.50;;;1.30;;
48665;SDS011;34452;50.796;4.994;2023-07-29T04:46:44;3.92;;;1.73;;
48665;SDS011;34452;50.796;4.994;2023-07-29T04:49:11;2.17;;;1.25;;
48665;SDS011;34452;50.796;4.994;2023-07-29T04:51:36;6.53;;;1.60;;
48665;SDS011;34452;50.796;4.994;2023-07-29T04:54:02;4.28;;;1.38;;
48665;SDS011;34452;50.796;4.994;2023-07-29T04:56:28;4.10;;;1.45;;
48665;SDS011;34452;50.796;4.994;2023-07-29T04:58:53;5.28;;;1.25;;
48665;SDS011;34452;50.796;4.994;2023-07-29T05:01:19;3.60;;;1.20;;
48665;SDS011;34452;50.796;4.994;2023-07-29T05:03:45;6.68;;;1.13;;
48665;SDS011;34452;50.796;4.994;2023-07-29T05:06:11;1.52;;;1.10;;
48665;SDS011;34452;50.796;4.994;2023-07-29T05:08:36;2.42;;;1.17;;
48665;SDS011;34452;50.796;4.994;2023-07-29T05:11:02;2.78;;;1.00;;
48665;SDS011;34452;50.796;4.994;2023-07-29T05:13:28;1.77;;;0.90;;
48665;SDS011;34452;50.796;4.994;2023-07-29T05:15:53;1.63;;;0.80;;
48665;SDS011;34452;50.796;4.994;2023-07-29T05:18:19;5.07;;;1.20;;
48665;SDS011;34452;50.796;4.994;2023-07-29T05:20:46;3.90;;;1.10;;
48665;SDS011;34452;50.796;4.994;2023-07-29T05:23:12;1.08;;;0.80;;
48665;SDS011;34452;50.796;4.994;2023-07-29T05:25:38;7.60;;;1.20;;
48665;SDS011;34452;50.796;4.994;2023-07-29T05:28:03;6.53;;;1.77;;
48665;SDS011;34452;50.796;4.994;2023-07-29T05:30:30;6.10;;;2.03;;
48665;SDS011;34452;50.796;4.994;2023-07-29T05:32:58;4.40;;;1.40;;
48665;SDS011;34452;50.796;4.994;2023-07-29T05:35:24;3.42;;;1.20;;
48665;SDS011;34452;50.796;4.994;2023-07-29T05:37:50;1.30;;;0.93;;
48665;SDS011;34452;50.796;4.994;2023-07-29T05:40:16;3.05;;;1.30;;
48665;SDS011;34452;50.796;4.994;2023-07-29T05:42:42;1.20;;;0.90;;
48665;SDS011;34452;50.796;4.994;2023-07-29T05:45:09;11.10;;;1.10;;
48665;SDS011;34452;50.796;4.994;2023-07-29T05:47:35;1.85;;;0.88;;
48665;SDS011;34452;50.796;4.994;2023-07-29T05:50:01;2.38;;;0.82;;
48665;SDS011;34452;50.796;4.994;2023-07-29T05:52:29;2.35;;;1.05;;
48665;SDS011;34452;50.796;4.994;2023-07-29T05:54:57;6.50;;;1.00;;
48665;SDS011;34452;50.796;4.994;2023-07-29T05:57:22;1.52;;;0.90;;
48665;SDS011;34452;50.796;4.994;2023-07-29T05:59:48;3.75;;;1.08;;
48665;SDS011;34452;50.796;4.994;2023-07-29T06:02:14;3.08;;;1.15;;
48665;SDS011;34452;50.796;4.994;2023-07-29T06:04:39;2.00;;;0.85;;
48665;SDS011;34452;50.796;4.994;2023-07-29T06:07:05;4.50;;;1.13;;
48665;SDS011;34452;50.796;4.994;2023-07-29T06:11:57;4.32;;;0.93;;
48665;SDS011;34452;50.796;4.994;2023-07-29T06:14:23;2.03;;;0.90;;
48665;SDS011;34452;50.796;4.994;2023-07-29T06:19:14;3.15;;;0.88;;
48665;SDS011;34452;50.796;4.994;2023-07-29T06:21:40;3.22;;;0.80;;
48665;SDS011;34452;50.796;4.994;2023-07-29T06:24:06;3.00;;;1.00;;
48665;SDS011;34452;50.796;4.994;2023-07-29T06:26:32;1.25;;;0.75;;
48665;SDS011;34452;50.796;4.994;2023-07-29T06:28:57;3.85;;;0.77;;
48665;SDS011;34452;50.796;4.994;2023-07-29T06:31:23;1.30;;;1.02;;
48665;SDS011;34452;50.796;4.994;2023-07-29T06:33:49;2.70;;;1.00;;
48665;SDS011;34452;50.796;4.994;2023-07-29T06:36:15;7.63;;;1.00;;
48665;SDS011;34452;50.796;4.994;2023-07-29T06:38:40;2.47;;;0.82;;
48665;SDS011;34452;50.796;4.994;2023-07-29T06:41:06;1.00;;;0.80;;
48665;SDS011;34452;50.796;4.994;2023-07-29T06:43:32;6.03;;;0.98;;
48665;SDS011;34452;50.796;4.994;2023-07-29T06:45:58;1.02;;;0.60;;
48665;SDS011;34452;50.796;4.994;2023-07-29T06:48:24;1.30;;;0.70;;
48665;SDS011;34452;50.796;4.994;2023-07-29T06:50:50;1.65;;;0.88;;
48665;SDS011;34452;50.796;4.994;2023-07-29T06:53:16;1.83;;;0.70;;
48665;SDS011;34452;50.796;4.994;2023-07-29T06:55:42;2.10;;;1.00;;
48665;SDS011;34452;50.796;4.994;2023-07-29T06:58:08;2.53;;;1.13;;
48665;SDS011;34452;50.796;4.994;2023-07-29T07:03:00;15.48;;;1.48;;
48665;SDS011;34452;50.796;4.994;2023-07-29T07:05:26;3.72;;;0.70;;
48665;SDS011;34452;50.796;4.994;2023-07-29T07:07:52;2.05;;;0.73;;
48665;SDS011;34452;50.796;4.994;2023-07-29T07:10:18;3.20;;;1.15;;
48665;SDS011;34452;50.796;4.994;2023-07-29T07:12:43;3.60;;;0.80;;
48665;SDS011;34452;50.796;4.994;2023-07-29T07:15:09;2.05;;;0.85;;
48665;SDS011;34452;50.796;4.994;2023-07-29T07:17:35;2.58;;;1.17;;
48665;SDS011;34452;50.796;4.994;2023-07-29T07:20:01;3.17;;;1.05;;
48665;SDS011;34452;50.796;4.994;2023-07-29T07:22:27;1.63;;;0.90;;
48665;SDS011;34452;50.796;4.994;2023-07-29T07:24:52;2.15;;;1.10;;
48665;SDS011;34452;50.796;4.994;2023-07-29T07:27:18;4.00;;;1.10;;
48665;SDS011;34452;50.796;4.994;2023-07-29T07:29:44;3.42;;;1.08;;
48665;SDS011;34452;50.796;4.994;2023-07-29T07:32:09;3.65;;;1.33;;
48665;SDS011;34452;50.796;4.994;2023-07-29T07:34:35;4.78;;;1.20;;
48665;SDS011;34452;50.796;4.994;2023-07-29T07:37:01;8.20;;;1.27;;
48665;SDS011;34452;50.796;4.994;2023-07-29T07:39:28;2.15;;;0.90;;
48665;SDS011;34452;50.796;4.994;2023-07-29T07:41:54;4.63;;;1.00;;
48665;SDS011;34452;50.796;4.994;2023-07-29T07:44:20;2.75;;;1.00;;
48665;SDS011;34452;50.796;4.994;2023-07-29T07:46:46;5.20;;;1.15;;
48665;SDS011;34452;50.796;4.994;2023-07-29T07:49:12;4.13;;;1.10;;
48665;SDS011;34452;50.796;4.994;2023-07-29T07:54:04;5.35;;;1.20;;
48665;SDS011;34452;50.796;4.994;2023-07-29T07:56:29;5.32;;;0.77;;
48665;SDS011;34452;50.796;4.994;2023-07-29T07:58:55;4.55;;;0.63;;
48665;SDS011;34452;50.796;4.994;2023-07-29T08:01:21;5.47;;;0.70;;
48665;SDS011;34452;50.796;4.994;2023-07-29T08:03:47;4.43;;;0.63;;
48665;SDS011;34452;50.796;4.994;2023-07-29T08:06:12;3.10;;;0.60;;
48665;SDS011;34452;50.796;4.994;2023-07-29T08:08:38;1.98;;;0.90;;
48665;SDS011;34452;50.796;4.994;2023-07-29T08:11:04;2.60;;;0.75;;
48665;SDS011;34452;50.796;4.994;2023-07-29T08:13:30;1.35;;;0.65;;
48665;SDS011;34452;50.796;4.994;2023-07-29T08:15:56;0.80;;;0.65;;
48665;SDS011;34452;50.796;4.994;2023-07-29T08:18:21;0.80;;;0.65;;
48665;SDS011;34452;50.796;4.994;2023-07-29T08:23:42;4.00;;;0.80;;
48665;SDS011;34452;50.796;4.994;2023-07-29T08:26:07;0.85;;;0.60;;
48665;SDS011;34452;50.796;4.994;2023-07-29T08:28:34;6.63;;;0.70;;
48665;SDS011;34452;50.796;4.994;2023-07-29T08:31:01;1.30;;;0.50;;
48665;SDS011;34452;50.796;4.994;2023-07-29T08:33:27;0.88;;;0.70;;
48665;SDS011;34452;50.796;4.994;2023-07-29T08:35:53;1.92;;;0.70;;
48665;SDS011;34452;50.796;4.994;2023-07-29T08:38:19;3.88;;;0.70;;
48665;SDS011;34452;50.796;4.994;2023-07-29T08:40:48;1.80;;;0.73;;
48665;SDS011;34452;50.796;4.994;2023-07-29T08:43:19;1.48;;;0.70;;
48665;SDS011;34452;50.796;4.994;2023-07-29T08:45:48;5.60;;;0.80;;
48665;SDS011;34452;50.796;4.994;2023-07-29T08:48:16;5.45;;;1.35;;
48665;SDS011;34452;50.796;4.994;2023-07-29T08:50:48;7.35;;;1.23;;
48665;SDS011;34452;50.796;4.994;2023-07-29T08:53:15;3.13;;;0.90;;
48665;SDS011;34452;50.796;4.994;2023-07-29T08:55:41;1.00;;;0.60;;
48665;SDS011;34452;50.796;4.994;2023-07-29T08:58:07;4.03;;;0.70;;
48665;SDS011;34452;50.796;4.994;2023-07-29T09:00:33;2.08;;;0.90;;
48665;SDS011;34452;50.796;4.994;2023-07-29T09:05:31;1.95;;;1.00;;
48665;SDS011;34452;50.796;4.994;2023-07-29T09:07:58;1.58;;;0.88;;
48665;SDS011;34452;50.796;4.994;2023-07-29T09:10:25;3.13;;;0.82;;
48665;SDS011;34452;50.796;4.994;2023-07-29T09:15:26;2.15;;;1.08;;
48665;SDS011;34452;50.796;4.994;2023-07-29T09:17:53;7.43;;;0.80;;
48665;SDS011;34452;50.796;4.994;2023-07-29T09:20:33;0.60;;;0.60;;
48665;SDS011;34452;50.796;4.994;2023-07-29T09:23:00;0.95;;;0.70;;
48665;SDS011;34452;50.796;4.994;2023-07-29T09:25:27;3.38;;;0.77;;
48665;SDS011;34452;50.796;4.994;2023-07-29T09:30:35;6.00;;;0.98;;
48665;SDS011;34452;50.796;4.994;2023-07-29T09:33:12;1.95;;;0.82;;
48665;SDS011;34452;50.796;4.994;2023-07-29T09:35:38;1.70;;;0.75;;
48665;SDS011;34452;50.796;4.994;2023-07-29T09:38:04;4.13;;;0.70;;
48665;SDS011;34452;50.796;4.994;2023-07-29T09:43:19;3.90;;;0.80;;
48665;SDS011;34452;50.796;4.994;2023-07-29T09:45:51;1.80;;;1.10;;
48665;SDS011;34452;50.796;4.994;2023-07-29T09:48:19;2.78;;;0.88;;
48665;SDS011;34452;50.796;4.994;2023-07-29T09:50:47;1.63;;;1.23;;
48665;SDS011;34452;50.796;4.994;2023-07-29T09:53:13;3.22;;;0.95;;
48665;SDS011;34452;50.796;4.994;2023-07-29T09:58:10;1.45;;;0.82;;
48665;SDS011;34452;50.796;4.994;2023-07-29T10:00:36;1.10;;;1.00;;
48665;SDS011;34452;50.796;4.994;2023-07-29T10:03:04;2.08;;;1.05;;
48665;SDS011;34452;50.796;4.994;2023-07-29T10:05:30;3.80;;;0.80;;
48665;SDS011;34452;50.796;4.994;2023-07-29T10:07:57;1.30;;;0.88;;
48665;SDS011;34452;50.796;4.994;2023-07-29T10:12:49;0.93;;;0.90;;
48665;SDS011;34452;50.796;4.994;2023-07-29T10:15:15;1.15;;;0.88;;
48665;SDS011;34452;50.796;4.994;2023-07-29T10:17:42;1.23;;;0.90;;
48665;SDS011;34452;50.796;4.994;2023-07-29T10:20:08;2.30;;;0.98;;
48665;SDS011;34452;50.796;4.994;2023-07-29T10:22:38;3.15;;;1.00;;
48665;SDS011;34452;50.796;4.994;2023-07-29T10:25:07;2.88;;;0.95;;
48665;SDS011;34452;50.796;4.994;2023-07-29T10:30:30;1.77;;;1.00;;
48665;SDS011;34452;50.796;4.994;2023-07-29T10:32:58;4.80;;;1.10;;
48665;SDS011;34452;50.796;4.994;2023-07-29T10:35:26;3.58;;;0.98;;
48665;SDS011;34452;50.796;4.994;2023-07-29T10:37:52;6.55;;;1.10;;
48665;SDS011;34452;50.796;4.994;2023-07-29T10:40:18;3.30;;;0.82;;
48665;SDS011;34452;50.796;4.994;2023-07-29T10:48:12;1.65;;;1.00;;
48665;SDS011;34452;50.796;4.994;2023-07-29T10:54:01;2.08;;;1.10;;
48665;SDS011;34452;50.796;4.994;2023-07-29T10:56:30;4.07;;;1.08;;
48665;SDS011;34452;50.796;4.994;2023-07-29T10:58:59;3.67;;;1.17;;
48665;SDS011;34452;50.796;4.994;2023-07-29T11:01:37;10.38;;;1.27;;
48665;SDS011;34452;50.796;4.994;2023-07-29T11:15:04;3.05;;;1.20;;
48665;SDS011;34452;50.796;4.994;2023-07-29T11:17:39;24.92;;;3.05;;
48665;SDS011;34452;50.796;4.994;2023-07-29T11:20:07;16.48;;;2.45;;
48665;SDS011;34452;50.796;4.994;2023-07-29T11:22:33;10.15;;;2.85;;
48665;SDS011;34452;50.796;4.994;2023-07-29T11:24:59;8.85;;;2.83;;
48665;SDS011;34452;50.796;4.994;2023-07-29T11:27:26;9.50;;;2.50;;
48665;SDS011;34452;50.796;4.994;2023-07-29T11:29:56;14.25;;;2.72;;
48665;SDS011;34452;50.796;4.994;2023-07-29T11:32:25;5.63;;;1.60;;
48665;SDS011;34452;50.796;4.994;2023-07-29T11:34:51;6.03;;;1.73;;
48665;SDS011;34452;50.796;4.994;2023-07-29T11:37:17;4.97;;;1.85;;
48665;SDS011;34452;50.796;4.994;2023-07-29T11:39:43;2.78;;;1.55;;
48665;SDS011;34452;50.796;4.994;2023-07-29T11:42:12;2.28;;;1.20;;
48665;SDS011;34452;50.796;4.994;2023-07-29T11:44:38;3.55;;;1.42;;
48665;SDS011;34452;50.796;4.994;2023-07-29T11:49:33;10.57;;;2.38;;
48665;SDS011;34452;50.796;4.994;2023-07-29T11:52:01;5.07;;;2.10;;
48665;SDS011;34452;50.796;4.994;2023-07-29T11:54:28;4.78;;;2.05;;
48665;SDS011;34452;50.796;4.994;2023-07-29T11:56:54;7.20;;;2.45;;
48665;SDS011;34452;50.796;4.994;2023-07-29T11:59:20;13.35;;;3.25;;
48665;SDS011;34452;50.796;4.994;2023-07-29T12:01:46;8.05;;;2.53;;
48665;SDS011;34452;50.796;4.994;2023-07-29T12:04:12;13.32;;;2.78;;
48665;SDS011;34452;50.796;4.994;2023-07-29T12:06:38;4.18;;;1.70;;
48665;SDS011;34452;50.796;4.994;2023-07-29T12:09:04;3.78;;;1.80;;
48665;SDS011;34452;50.796;4.994;2023-07-29T12:11:30;2.80;;;1.58;;
48665;SDS011;34452;50.796;4.994;2023-07-29T12:13:59;7.88;;;1.90;;
48665;SDS011;34452;50.796;4.994;2023-07-29T12:16:25;4.32;;;1.63;;
48665;SDS011;34452;50.796;4.994;2023-07-29T12:18:50;7.05;;;2.25;;
48665;SDS011;34452;50.796;4.994;2023-07-29T12:21:17;3.25;;;1.52;;
48665;SDS011;34452;50.796;4.994;2023-07-29T12:23:44;2.67;;;1.48;;
48665;SDS011;34452;50.796;4.994;2023-07-29T12:26:09;5.70;;;2.05;;
48665;SDS011;34452;50.796;4.994;2023-07-29T12:28:35;5.60;;;1.60;;
48665;SDS011;34452;50.796;4.994;2023-07-29T12:31:01;1.75;;;1.40;;
48665;SDS011;34452;50.796;4.994;2023-07-29T12:33:33;2.85;;;1.13;;
48665;SDS011;34452;50.796;4.994;2023-07-29T12:36:01;2.88;;;1.48;;
48665;SDS011;34452;50.796;4.994;2023-07-29T12:38:27;5.00;;;1.70;;
48665;SDS011;34452;50.796;4.994;2023-07-29T12:40:53;6.57;;;2.10;;
48665;SDS011;34452;50.796;4.994;2023-07-29T12:43:19;2.50;;;1.73;;
48665;SDS011;34452;50.796;4.994;2023-07-29T12:45:45;6.93;;;1.30;;
48665;SDS011;34452;50.796;4.994;2023-07-29T12:48:11;2.78;;;1.33;;
48665;SDS011;34452;50.796;4.994;2023-07-29T12:50:37;5.30;;;1.08;;
48665;SDS011;34452;50.796;4.994;2023-07-29T12:55:32;1.77;;;1.00;;
48665;SDS011;34452;50.796;4.994;2023-07-29T12:57:58;2.05;;;0.80;;
48665;SDS011;34452;50.796;4.994;2023-07-29T13:00:24;2.35;;;0.85;;
48665;SDS011;34452;50.796;4.994;2023-07-29T13:02:50;3.92;;;0.85;;
48665;SDS011;34452;50.796;4.994;2023-07-29T13:05:16;1.73;;;0.98;;
48665;SDS011;34452;50.796;4.994;2023-07-29T13:07:42;0.80;;;0.80;;
48665;SDS011;34452;50.796;4.994;2023-07-29T13:10:08;2.70;;;1.10;;
48665;SDS011;34452;50.796;4.994;2023-07-29T13:12:34;2.13;;;1.15;;
48665;SDS011;34452;50.796;4.994;2023-07-29T13:15:00;3.70;;;0.90;;
48665;SDS011;34452;50.796;4.994;2023-07-29T13:17:27;8.00;;;1.00;;
48665;SDS011;34452;50.796;4.994;2023-07-29T13:19:52;4.50;;;0.90;;
48665;SDS011;34452;50.796;4.994;2023-07-29T13:22:19;1.55;;;1.00;;
48665;SDS011;34452;50.796;4.994;2023-07-29T13:24:45;5.10;;;0.80;;
48665;SDS011;34452;50.796;4.994;2023-07-29T13:27:11;1.08;;;1.00;;
48665;SDS011;34452;50.796;4.994;2023-07-29T13:29:37;2.03;;;1.00;;
48665;SDS011;34452;50.796;4.994;2023-07-29T13:32:03;2.03;;;1.02;;
48665;SDS011;34452;50.796;4.994;2023-07-29T13:34:29;2.28;;;1.02;;
48665;SDS011;34452;50.796;4.994;2023-07-29T13:36:54;2.25;;;1.45;;
48665;SDS011;34452;50.796;4.994;2023-07-29T13:39:20;1.20;;;1.00;;
48665;SDS011;34452;50.796;4.994;2023-07-29T13:41:46;1.27;;;1.17;;
48665;SDS011;34452;50.796;4.994;2023-07-29T13:44:11;2.55;;;1.25;;
48665;SDS011;34452;50.796;4.994;2023-07-29T13:46:37;1.60;;;1.00;;
48665;SDS011;34452;50.796;4.994;2023-07-29T13:49:03;4.30;;;0.85;;
48665;SDS011;34452;50.796;4.994;2023-07-29T13:51:29;1.52;;;1.08;;
48665;SDS011;34452;50.796;4.994;2023-07-29T13:53:54;1.70;;;0.98;;
48665;SDS011;34452;50.796;4.994;2023-07-29T13:56:21;1.55;;;1.00;;
48665;SDS011;34452;50.796;4.994;2023-07-29T14:01:13;1.92;;;0.70;;
48665;SDS011;34452;50.796;4.994;2023-07-29T14:03:38;1.80;;;0.85;;
48665;SDS011;34452;50.796;4.994;2023-07-29T14:06:04;1.17;;;0.88;;
48665;SDS011;34452;50.796;4.994;2023-07-29T14:08:30;3.63;;;1.27;;
48665;SDS011;34452;50.796;4.994;2023-07-29T14:10:56;1.27;;;0.98;;
48665;SDS011;34452;50.796;4.994;2023-07-29T14:13:21;5.45;;;1.20;;
48665;SDS011;34452;50.796;4.994;2023-07-29T14:15:47;0.80;;;0.80;;
48665;SDS011;34452;50.796;4.994;2023-07-29T14:18:13;1.35;;;0.98;;
48665;SDS011;34452;50.796;4.994;2023-07-29T14:20:38;7.40;;;0.90;;
48665;SDS011;34452;50.796;4.994;2023-07-29T14:23:04;2.35;;;0.90;;
48665;SDS011;34452;50.796;4.994;2023-07-29T14:25:30;1.75;;;0.88;;
48665;SDS011;34452;50.796;4.994;2023-07-29T14:27:56;1.40;;;0.82;;
48665;SDS011;34452;50.796;4.994;2023-07-29T14:30:22;1.38;;;0.70;;
48665;SDS011;34452;50.796;4.994;2023-07-29T14:32:48;5.03;;;0.95;;
48665;SDS011;34452;50.796;4.994;2023-07-29T14:37:39;2.53;;;0.93;;
48665;SDS011;34452;50.796;4.994;2023-07-29T14:40:05;1.23;;;0.95;;
48665;SDS011;34452;50.796;4.994;2023-07-29T14:42:32;4.25;;;1.00;;
48665;SDS011;34452;50.796;4.994;2023-07-29T14:44:58;4.93;;;0.80;;
48665;SDS011;34452;50.796;4.994;2023-07-29T14:47:23;3.17;;;0.82;;
48665;SDS011;34452;50.796;4.994;2023-07-29T14:49:49;2.83;;;0.80;;
48665;SDS011;34452;50.796;4.994;2023-07-29T14:54:41;0.77;;;0.68;;
48665;SDS011;34452;50.796;4.994;2023-07-29T14:59:32;1.75;;;0.77;;
48665;SDS011;34452;50.796;4.994;2023-07-29T15:04:24;0.80;;;0.70;;
48665;SDS011;34452;50.796;4.994;2023-07-29T15:09:15;1.27;;;0.80;;
48665;SDS011;34452;50.796;4.994;2023-07-29T15:11:41;1.42;;;0.77;;
48665;SDS011;34452;50.796;4.994;2023-07-29T15:14:07;4.95;;;0.70;;
48665;SDS011;34452;50.796;4.994;2023-07-29T15:16:33;1.05;;;0.70;;
48665;SDS011;34452;50.796;4.994;2023-07-29T15:19:01;0.68;;;0.60;;
48665;SDS011;34452;50.796;4.994;2023-07-29T15:21:28;0.60;;;0.60;;
48665;SDS011;34452;50.796;4.994;2023-07-29T15:23:54;0.57;;;0.52;;
48665;SDS011;34452;50.796;4.994;2023-07-29T15:26:19;0.95;;;0.88;;
48665;SDS011;34452;50.796;4.994;2023-07-29T15:28:45;1.13;;;0.70;;
48665;SDS011;34452;50.796;4.994;2023-07-29T15:31:13;4.63;;;0.80;;
48665;SDS011;34452;50.796;4.994;2023-07-29T15:33:38;1.40;;;0.77;;
48665;SDS011;34452;50.796;4.994;2023-07-29T15:36:04;3.03;;;0.68;;
48665;SDS011;34452;50.796;4.994;2023-07-29T15:38:30;2.78;;;0.80;;
48665;SDS011;34452;50.796;4.994;2023-07-29T15:40:56;0.82;;;0.70;;
48665;SDS011;34452;50.796;4.994;2023-07-29T15:43:22;0.75;;;0.75;;
48665;SDS011;34452;50.796;4.994;2023-07-29T15:45:48;2.03;;;1.00;;
48665;SDS011;34452;50.796;4.994;2023-07-29T15:50:41;1.45;;;0.77;;
48665;SDS011;34452;50.796;4.994;2023-07-29T15:53:06;1.60;;;0.80;;
48665;SDS011;34452;50.796;4.994;2023-07-29T15:55:32;1.15;;;0.77;;
48665;SDS011;34452;50.796;4.994;2023-07-29T15:57:58;3.22;;;0.80;;
48665;SDS011;34452;50.796;4.994;2023-07-29T16:02:50;1.08;;;0.80;;
48665;SDS011;34452;50.796;4.994;2023-07-29T16:07:41;0.70;;;0.60;;
48665;SDS011;34452;50.796;4.994;2023-07-29T16:10:08;2.10;;;0.73;;
48665;SDS011;34452;50.796;4.994;2023-07-29T16:12:34;3.60;;;0.80;;
48665;SDS011;34452;50.796;4.994;2023-07-29T16:15:03;0.90;;;0.75;;
48665;SDS011;34452;50.796;4.994;2023-07-29T16:17:31;2.50;;;0.95;;